Time;durP1;ratioP1;P1;durP2;ratioP2;P2;SDS_P1;SDS_P2;PMS_P1;PMS_P2;Temp;Humidity;BMP_temperature;BMP_pressure;BME280_temperature;BME280_humidity;BME280_pressure;Samples;Min_cycle;Max_cycle;Signal;HPM_P1;HPM_P2
2022/10/27 00:00:42;;;;;;;13.90;8.38;;;13.60;99.90;;;;;;5044541;28;20036;-43
2022/10/27 00:03:11;;;;;;;16.05;8.00;;;13.70;99.90;;;;;;5044604;28;20048;-43
2022/10/27 00:05:37;;;;;;;12.05;8.07;;;13.60;99.90;;;;;;5044355;28;20036;-43
2022/10/27 00:08:03;;;;;;;14.55;8.23;;;14.00;99.90;;;;;;5044221;28;20473;-44
2022/10/27 00:10:29;;;;;;;15.73;8.82;;;14.00;99.90;;;;;;5043103;28;20472;-43
2022/10/27 00:12:54;;;;;;;17.80;8.88;;;14.00;99.90;;;;;;5045388;28;20045;-47
2022/10/27 00:15:20;;;;;;;12.75;8.27;;;13.90;99.90;;;;;;5044188;28;20551;-44
2022/10/27 00:17:46;;;;;;;13.00;8.57;;;14.00;99.90;;;;;;5044071;28;20029;-43
2022/10/27 00:20:12;;;;;;;12.40;7.80;;;14.10;99.90;;;;;;5043338;28;20025;-45
2022/10/27 00:22:38;;;;;;;13.70;8.00;;;13.90;99.90;;;;;;5043165;28;20488;-43
2022/10/27 00:25:04;;;;;;;12.95;8.40;;;14.00;99.90;;;;;;5044252;28;20033;-45
2022/10/27 00:27:30;;;;;;;13.88;8.63;;;14.00;99.90;;;;;;5042369;28;20071;-43
2022/10/27 00:29:56;;;;;;;12.50;8.45;;;13.90;99.90;;;;;;5043147;28;20167;-43
2022/10/27 00:32:22;;;;;;;12.23;8.00;;;13.70;99.90;;;;;;5043845;28;20037;-46
2022/10/27 00:34:47;;;;;;;14.20;8.32;;;14.10;99.90;;;;;;5042202;28;20172;-45
2022/10/27 00:37:13;;;;;;;13.63;8.25;;;13.70;99.90;;;;;;5043853;28;20127;-45
2022/10/27 00:39:39;;;;;;;14.55;8.77;;;13.70;99.90;;;;;;5043821;28;20036;-45
2022/10/27 00:42:04;;;;;;;14.82;8.27;;;14.00;99.90;;;;;;5044692;28;20043;-43
2022/10/27 00:44:39;;;;;;;14.80;8.65;;;14.00;99.90;;;;;;5043668;28;20029;-46
2022/10/27 00:47:13;;;;;;;;;;;14.00;99.90;;;;;;5042519;28;20124;-43
2022/10/27 00:50:05;;;;;;;12.40;7.38;;;13.80;99.90;;;;;;5042684;28;19932;-44
2022/10/27 00:52:35;;;;;;;14.10;8.93;;;13.70;99.90;;;;;;5039871;28;20427;-45
2022/10/27 00:55:29;;;;;;;16.00;9.32;;;13.60;99.90;;;;;;5043470;28;20029;-44
2022/10/27 00:57:58;;;;;;;16.30;7.47;;;13.80;99.90;;;;;;5041584;28;20052;-45
2022/10/27 01:00:24;;;;;;;14.70;8.23;;;13.60;99.90;;;;;;5043222;28;20114;-45
2022/10/27 01:02:50;;;;;;;11.90;8.02;;;13.70;99.90;;;;;;5043369;28;20032;-46
2022/10/27 01:05:17;;;;;;;14.05;8.63;;;13.90;99.90;;;;;;5043854;28;20040;-45
2022/10/27 01:07:45;;;;;;;15.23;8.45;;;13.90;99.90;;;;;;5043404;28;20043;-43
2022/10/27 01:10:12;;;;;;;14.55;8.60;;;14.20;99.90;;;;;;5042523;28;20436;-45
2022/10/27 01:12:38;;;;;;;11.45;8.10;;;14.20;99.90;;;;;;5042758;28;20037;-44
2022/10/27 01:15:04;;;;;;;14.93;7.80;;;14.20;99.90;;;;;;5042039;28;20040;-44
2022/10/27 01:17:48;;;;;;;13.30;8.05;;;14.00;99.90;;;;;;5042814;28;20033;-44
2022/10/27 01:20:34;;;;;;;14.25;8.48;;;14.30;99.90;;;;;;5044102;28;20029;-45
2022/10/27 01:23:28;;;;;;;13.40;7.93;;;13.80;99.90;;;;;;5042679;28;20037;-44
2022/10/27 01:26:23;;;;;;;14.68;8.57;;;13.90;99.90;;;;;;5039423;28;20056;-45
2022/10/27 01:29:31;;;;;;;15.20;8.93;;;13.90;99.90;;;;;;5040754;28;20041;-45
2022/10/27 01:32:15;;;;;;;16.10;8.90;;;13.90;99.90;;;;;;5042965;28;20567;-43
2022/10/27 01:34:52;;;;;;;15.05;8.88;;;14.10;99.90;;;;;;5042337;28;20083;-45
2022/10/27 01:37:23;;;;;;;14.98;8.60;;;14.10;99.90;;;;;;5041240;28;20051;-45
2022/10/27 01:40:03;;;;;;;14.93;9.30;;;14.20;99.90;;;;;;5040872;28;20041;-44
2022/10/27 01:42:47;;;;;;;17.25;9.18;;;14.00;99.90;;;;;;5042859;28;20060;-44
2022/10/27 01:45:16;;;;;;;16.33;8.50;;;14.20;99.90;;;;;;5057546;28;20029;-44
2022/10/27 01:47:41;;;;;;;14.77;8.30;;;14.20;99.90;;;;;;5042272;28;20508;-44
2022/10/27 01:50:08;;;;;;;16.20;8.98;;;13.80;99.90;;;;;;5041622;28;20068;-44
2022/10/27 01:52:48;;;;;;;14.27;8.38;;;13.90;99.90;;;;;;5040414;28;20049;-43
2022/10/27 01:55:16;;;;;;;17.90;8.45;;;14.20;99.90;;;;;;5042527;28;20427;-44
2022/10/27 01:58:01;;;;;;;16.55;8.88;;;14.10;99.90;;;;;;5041786;28;20560;-44
2022/10/27 02:00:27;;;;;;;18.05;8.40;;;13.80;99.90;;;;;;5042676;28;20037;-44
2022/10/27 02:03:07;;;;;;;15.13;8.60;;;13.90;99.90;;;;;;5041284;28;20041;-45
2022/10/27 02:05:48;;;;;;;14.68;8.60;;;13.70;99.90;;;;;;5041659;28;20068;-44
2022/10/27 02:08:38;;;;;;;15.55;8.45;;;13.80;99.90;;;;;;5041433;28;20124;-45
2022/10/27 02:11:06;;;;;;;14.73;8.80;;;13.70;99.90;;;;;;5041868;28;20468;-43
2022/10/27 02:13:34;;;;;;;15.93;8.60;;;13.70;99.90;;;;;;5040721;28;20100;-44
2022/10/27 02:16:07;;;;;;;17.20;9.45;;;13.80;99.90;;;;;;5041030;28;20060;-44
2022/10/27 02:18:37;;;;;;;13.70;8.55;;;13.70;99.90;;;;;;5041693;28;20061;-44
2022/10/27 02:21:08;;;;;;;16.52;9.30;;;13.60;99.90;;;;;;5041157;28;20040;-45
2022/10/27 02:23:34;;;;;;;17.02;9.27;;;14.10;99.90;;;;;;5041741;28;20118;-44
2022/10/27 02:26:09;;;;;;;19.30;9.05;;;14.00;99.90;;;;;;5040952;28;20140;-45
2022/10/27 02:28:40;;;;;;;15.60;9.32;;;13.60;99.90;;;;;;5036750;28;20074;-44
2022/10/27 02:31:08;;;;;;;15.85;9.10;;;14.00;99.90;;;;;;5041209;28;20036;-45
2022/10/27 02:33:34;;;;;;;16.13;9.00;;;13.80;99.90;;;;;;5039655;28;20178;-45
2022/10/27 02:36:00;;;;;;;18.30;10.30;;;13.90;99.90;;;;;;5041257;28;20112;-44
2022/10/27 02:38:25;;;;;;;18.25;10.07;;;13.50;99.90;;;;;;5040569;28;20068;-44
2022/10/27 02:40:51;;;;;;;18.50;10.52;;;13.60;99.90;;;;;;5039604;28;20110;-46
2022/10/27 02:43:17;;;;;;;19.63;11.18;;;13.60;99.90;;;;;;5041623;28;20043;-44
2022/10/27 02:45:42;;;;;;;14.63;10.50;;;13.50;99.90;;;;;;5041293;28;20543;-44
2022/10/27 02:48:08;;;;;;;16.25;10.30;;;13.50;99.90;;;;;;5041283;28;20503;-44
2022/10/27 02:50:34;;;;;;;15.13;10.50;;;13.60;99.90;;;;;;5041095;28;20098;-43
2022/10/27 02:52:59;;;;;;;20.85;11.40;;;13.70;99.90;;;;;;5041599;28;20384;-44
2022/10/27 02:55:25;;;;;;;18.80;11.15;;;13.90;99.90;;;;;;5041153;28;20029;-44
2022/10/27 02:57:50;;;;;;;19.48;11.10;;;13.80;99.90;;;;;;5041148;28;20079;-44
2022/10/27 03:00:17;;;;;;;20.75;11.25;;;13.70;99.90;;;;;;5041223;28;20045;-44
2022/10/27 03:02:42;;;;;;;16.75;12.23;;;13.60;99.90;;;;;;5040961;28;20093;-43
2022/10/27 03:05:08;;;;;;;19.65;10.48;;;13.50;99.90;;;;;;5041876;28;20434;-43
2022/10/27 03:07:34;;;;;;;20.80;10.98;;;13.50;99.90;;;;;;5040980;28;21002;-43
2022/10/27 03:10:00;;;;;;;20.00;11.20;;;13.70;99.90;;;;;;5040314;28;20073;-44
2022/10/27 03:12:25;;;;;;;17.85;11.43;;;13.70;99.90;;;;;;5041198;28;20459;-44
2022/10/27 03:14:51;;;;;;;18.52;10.90;;;13.70;99.90;;;;;;5054782;28;20030;-46
2022/10/27 03:17:17;;;;;;;19.48;11.00;;;13.60;99.90;;;;;;5040036;28;20123;-44
2022/10/27 03:19:42;;;;;;;19.10;11.23;;;13.40;99.90;;;;;;5041150;28;20055;-44
2022/10/27 03:22:08;;;;;;;17.73;10.93;;;13.20;99.90;;;;;;5041172;28;20167;-45
2022/10/27 03:24:33;;;;;;;20.52;11.82;;;13.20;99.90;;;;;;5042810;28;20111;-44
2022/10/27 03:26:59;;;;;;;19.52;12.25;;;13.40;99.90;;;;;;5045103;28;20049;-44
2022/10/27 03:29:25;;;;;;;20.02;12.40;;;13.10;99.90;;;;;;5045112;28;20076;-43
2022/10/27 03:31:51;;;;;;;17.92;11.43;;;13.60;99.90;;;;;;5043836;28;20063;-44
2022/10/27 03:34:17;;;;;;;19.95;12.95;;;13.40;99.90;;;;;;5044506;28;20481;-44
2022/10/27 03:36:42;;;;;;;18.80;11.38;;;13.10;99.90;;;;;;5043951;28;20037;-44
2022/10/27 03:39:08;;;;;;;22.60;10.80;;;13.30;99.90;;;;;;5044765;28;20492;-44
2022/10/27 03:41:34;;;;;;;18.23;12.32;;;13.20;99.90;;;;;;5044024;28;20049;-43
2022/10/27 03:43:59;;;;;;;22.63;12.52;;;13.00;99.90;;;;;;5044758;28;20382;-44
2022/10/27 03:46:25;;;;;;;19.70;13.18;;;13.30;99.90;;;;;;5043558;28;20067;-44
2022/10/27 03:48:53;;;;;;;22.40;12.85;;;13.40;99.90;;;;;;5043639;28;20527;-46
2022/10/27 03:51:19;;;;;;;16.73;12.23;;;12.90;99.90;;;;;;5042741;28;20512;-44
2022/10/27 03:53:45;;;;;;;16.67;13.10;;;13.00;99.90;;;;;;5045425;28;20078;-45
2022/10/27 03:56:12;;;;;;;18.20;12.73;;;12.90;99.90;;;;;;5045240;28;20464;-44
2022/10/27 03:58:38;;;;;;;21.00;13.60;;;13.30;99.90;;;;;;5043466;28;20557;-45
2022/10/27 04:01:05;;;;;;;18.67;13.13;;;12.80;99.90;;;;;;5044592;28;20025;-44
2022/10/27 04:03:31;;;;;;;18.77;13.45;;;12.80;99.90;;;;;;5044462;28;20032;-44
2022/10/27 04:05:56;;;;;;;22.05;13.98;;;13.00;99.90;;;;;;5044316;28;20051;-44
2022/10/27 04:08:22;;;;;;;21.33;13.15;;;13.30;99.90;;;;;;5043545;28;20037;-44
2022/10/27 04:10:48;;;;;;;20.75;13.48;;;12.80;99.90;;;;;;5043098;28;20033;-45
2022/10/27 04:13:13;;;;;;;21.88;13.85;;;12.90;99.90;;;;;;5044449;28;20037;-44
2022/10/27 04:15:39;;;;;;;22.95;14.20;;;13.20;99.90;;;;;;5042246;28;20032;-44
2022/10/27 04:18:05;;;;;;;20.98;13.88;;;13.00;99.90;;;;;;5043327;28;20469;-44
2022/10/27 04:20:30;;;;;;;19.77;13.65;;;13.30;99.90;;;;;;5043800;28;20539;-45
2022/10/27 04:22:57;;;;;;;18.58;13.57;;;13.30;99.90;;;;;;5043857;28;20063;-47
2022/10/27 04:25:24;;;;;;;20.88;13.40;;;13.30;99.90;;;;;;5042120;28;20043;-44
2022/10/27 04:27:50;;;;;;;18.90;13.73;;;12.90;99.90;;;;;;5043993;28;20041;-43
2022/10/27 04:30:16;;;;;;;20.33;13.95;;;13.20;99.90;;;;;;5044206;28;20119;-44
2022/10/27 04:32:42;;;;;;;18.20;13.77;;;13.40;99.90;;;;;;5043490;28;20404;-47
2022/10/27 04:35:08;;;;;;;19.52;13.63;;;13.20;99.90;;;;;;5043172;28;20048;-46
2022/10/27 04:37:34;;;;;;;17.50;13.30;;;12.90;99.90;;;;;;5043962;28;20037;-46
2022/10/27 04:40:00;;;;;;;19.55;13.00;;;13.20;99.90;;;;;;5043396;28;20471;-46
2022/10/27 04:42:26;;;;;;;19.25;14.35;;;13.10;99.90;;;;;;5043578;28;20040;-47
2022/10/27 04:44:51;;;;;;;18.10;13.65;;;13.40;99.90;;;;;;5042680;28;20463;-45
2022/10/27 04:47:17;;;;;;;18.65;12.88;;;13.00;99.90;;;;;;5043409;28;20039;-46
2022/10/27 04:49:42;;;;;;;22.25;13.43;;;13.50;99.90;;;;;;5043196;28;20558;-44
2022/10/27 04:52:08;;;;;;;20.42;13.45;;;13.40;99.90;;;;;;5043370;28;20059;-45
2022/10/27 04:54:34;;;;;;;17.00;12.95;;;13.10;99.90;;;;;;5042271;28;20021;-44
2022/10/27 04:56:59;;;;;;;18.05;12.95;;;13.00;99.90;;;;;;5043960;28;20044;-43
2022/10/27 04:59:25;;;;;;;16.90;11.40;;;13.30;99.90;;;;;;5043738;28;20055;-43
2022/10/27 05:01:51;;;;;;;22.33;13.60;;;13.10;99.90;;;;;;5044168;28;20496;-45
2022/10/27 05:04:16;;;;;;;20.35;12.80;;;13.10;99.90;;;;;;5042150;28;20040;-47
2022/10/27 05:06:42;;;;;;;19.85;13.73;;;13.20;99.90;;;;;;5043526;28;20025;-44
2022/10/27 05:09:08;;;;;;;17.88;13.93;;;13.00;99.90;;;;;;5043401;28;20037;-44
2022/10/27 05:11:33;;;;;;;20.42;14.38;;;13.30;99.90;;;;;;5043206;28;20126;-45
2022/10/27 05:13:59;;;;;;;19.08;13.98;;;13.50;99.90;;;;;;5042814;28;20858;-45
2022/10/27 05:16:25;;;;;;;21.98;13.90;;;13.20;99.90;;;;;;5041616;28;20037;-46
2022/10/27 05:18:50;;;;;;;20.23;14.30;;;13.00;99.90;;;;;;5042698;28;21011;-44
2022/10/27 05:21:16;;;;;;;19.67;14.98;;;13.50;99.90;;;;;;5043244;28;20072;-43
2022/10/27 05:23:41;;;;;;;20.50;14.32;;;13.00;99.90;;;;;;5043410;28;20037;-44
2022/10/27 05:26:07;;;;;;;23.27;14.80;;;13.10;99.90;;;;;;5043845;28;20164;-43
2022/10/27 05:28:33;;;;;;;19.58;14.32;;;13.00;99.90;;;;;;5041353;28;20399;-45
2022/10/27 05:30:59;;;;;;;22.17;14.30;;;13.50;99.90;;;;;;5041026;28;20032;-43
2022/10/27 05:33:26;;;;;;;20.00;13.27;;;13.50;99.90;;;;;;5042281;28;20404;-44
2022/10/27 05:35:52;;;;;;;18.65;12.65;;;13.40;99.90;;;;;;5043050;28;20142;-45
2022/10/27 05:38:18;;;;;;;20.42;14.02;;;13.40;99.90;;;;;;5042169;28;20429;-44
2022/10/27 05:40:44;;;;;;;20.70;13.85;;;13.30;99.90;;;;;;5041875;28;20376;-45
2022/10/27 05:43:10;;;;;;;18.52;13.57;;;13.10;99.90;;;;;;5039744;28;20036;-43
2022/10/27 05:45:36;;;;;;;21.08;12.80;;;13.40;99.90;;;;;;5040326;28;20028;-44
2022/10/27 05:48:08;;;;;;;15.77;12.95;;;13.50;99.90;;;;;;5039599;28;20041;-46
2022/10/27 05:50:34;;;;;;;15.88;12.70;;;13.50;99.90;;;;;;5038538;28;20172;-44
2022/10/27 05:53:00;;;;;;;17.13;12.60;;;13.10;99.90;;;;;;5041627;28;20171;-45
2022/10/27 05:55:26;;;;;;;18.63;12.32;;;13.60;99.90;;;;;;5039824;28;20029;-44
2022/10/27 05:58:00;;;;;;;17.13;11.95;;;13.20;99.90;;;;;;5039484;28;20041;-44
2022/10/27 06:00:31;;;;;;;15.20;11.52;;;13.20;99.90;;;;;;5041139;28;20183;-43
2022/10/27 06:02:59;;;;;;;16.45;12.07;;;13.30;99.90;;;;;;5040491;28;20036;-45
2022/10/27 06:05:26;;;;;;;16.17;10.63;;;13.50;99.90;;;;;;5040746;28;20040;-44
2022/10/27 06:07:52;;;;;;;16.95;11.27;;;13.60;99.90;;;;;;5039888;28;20487;-46
2022/10/27 06:10:18;;;;;;;14.02;10.88;;;13.40;99.90;;;;;;5039548;28;20041;-44
2022/10/27 06:12:43;;;;;;;16.88;11.05;;;13.60;99.90;;;;;;5040167;28;20041;-45
2022/10/27 06:15:10;;;;;;;17.88;11.15;;;13.20;99.90;;;;;;5040419;28;20075;-44
2022/10/27 06:17:35;;;;;;;14.25;10.68;;;13.20;99.90;;;;;;5040290;28;20033;-44
2022/10/27 06:20:01;;;;;;;17.30;9.98;;;13.20;99.90;;;;;;5055276;28;20041;-45
2022/10/27 06:22:27;;;;;;;15.88;9.55;;;13.20;99.90;;;;;;5039842;28;20048;-44
2022/10/27 06:24:53;;;;;;;16.48;10.57;;;13.70;99.90;;;;;;5038446;28;20453;-44
2022/10/27 06:27:18;;;;;;;16.15;9.50;;;13.40;99.90;;;;;;5038899;28;20476;-44
2022/10/27 06:29:44;;;;;;;15.25;8.30;;;13.50;99.90;;;;;;5039853;28;20037;-43
2022/10/27 06:32:09;;;;;;;13.48;9.18;;;13.70;99.90;;;;;;5041446;28;20377;-45
2022/10/27 06:34:35;;;;;;;13.25;9.23;;;13.80;99.90;;;;;;5040077;28;20103;-43
2022/10/27 06:37:04;;;;;;;13.15;9.43;;;13.50;99.90;;;;;;5038574;28;20102;-44
2022/10/27 06:39:30;;;;;;;15.00;9.40;;;13.70;99.90;;;;;;5039436;28;20041;-45
2022/10/27 06:41:57;;;;;;;12.77;8.52;;;13.50;99.90;;;;;;5035663;28;20496;-45
2022/10/27 06:44:23;;;;;;;16.55;9.38;;;13.80;99.90;;;;;;5037407;28;20037;-45
2022/10/27 06:46:49;;;;;;;14.52;8.85;;;13.70;99.90;;;;;;5035657;28;20079;-43
2022/10/27 06:49:15;;;;;;;15.15;8.55;;;13.50;99.90;;;;;;5033458;28;20041;-46
2022/10/27 06:51:41;;;;;;;11.32;8.15;;;13.60;99.90;;;;;;5034806;28;20075;-43
2022/10/27 06:54:06;;;;;;;15.50;9.07;;;13.40;99.90;;;;;;5031262;28;20365;-45
2022/10/27 06:56:33;;;;;;;14.50;9.00;;;13.40;99.90;;;;;;5031579;28;20071;-45
2022/10/27 06:58:59;;;;;;;16.02;8.93;;;13.80;99.90;;;;;;5034136;28;20413;-45
2022/10/27 07:01:26;;;;;;;14.07;8.60;;;13.50;99.90;;;;;;5029688;28;20075;-44
2022/10/27 07:03:51;;;;;;;15.32;9.32;;;13.80;99.90;;;;;;5034441;28;20116;-43
2022/10/27 07:06:17;;;;;;;13.82;8.32;;;13.80;99.90;;;;;;5033417;28;20124;-46
2022/10/27 07:08:43;;;;;;;12.65;8.80;;;13.60;99.90;;;;;;5034648;28;20388;-44
2022/10/27 07:11:08;;;;;;;17.75;9.32;;;13.70;99.90;;;;;;5032617;28;20493;-46
2022/10/27 07:13:35;;;;;;;14.90;9.27;;;13.60;99.90;;;;;;5034413;28;20034;-45
2022/10/27 07:16:01;;;;;;;16.67;9.13;;;13.80;99.90;;;;;;5034028;28;20028;-44
2022/10/27 07:18:26;;;;;;;14.98;8.98;;;13.60;99.90;;;;;;5030782;28;20053;-44
2022/10/27 07:20:52;;;;;;;16.50;9.73;;;13.60;99.90;;;;;;5033537;28;20583;-46
2022/10/27 07:23:18;;;;;;;16.27;9.27;;;13.70;99.90;;;;;;5033222;28;20072;-44
2022/10/27 07:25:48;;;;;;;20.27;9.05;;;13.90;99.90;;;;;;5036236;28;20084;-47
2022/10/27 07:28:14;;;;;;;15.50;8.45;;;13.80;99.90;;;;;;5035167;28;20049;-43
2022/10/27 07:30:43;;;;;;;11.93;8.77;;;13.80;99.90;;;;;;5033764;28;20044;-44
2022/10/27 07:33:12;;;;;;;17.25;9.10;;;14.00;99.90;;;;;;5034813;28;20044;-46
2022/10/27 07:35:39;;;;;;;16.80;9.50;;;13.90;99.90;;;;;;5035045;28;21131;-45
2022/10/27 07:38:06;;;;;;;14.98;9.07;;;13.70;99.90;;;;;;5035574;28;20029;-44
2022/10/27 07:40:33;;;;;;;16.90;9.43;;;13.90;99.90;;;;;;5030830;28;20033;-47
2022/10/27 07:43:00;;;;;;;16.33;9.60;;;13.80;99.90;;;;;;5034124;28;20176;-45
2022/10/27 07:45:26;;;;;;;15.43;9.88;;;14.00;99.90;;;;;;5034533;28;20060;-45
2022/10/27 07:47:55;;;;;;;13.27;9.23;;;14.20;99.90;;;;;;5032582;28;20037;-44
2022/10/27 07:50:23;;;;;;;16.02;9.43;;;14.10;99.90;;;;;;5032437;28;20370;-46
2022/10/27 07:52:51;;;;;;;13.40;9.35;;;14.20;99.90;;;;;;5034532;28;20431;-46
2022/10/27 07:55:19;;;;;;;18.65;9.13;;;14.30;99.90;;;;;;5033330;28;20122;-46
2022/10/27 07:57:45;;;;;;;12.68;8.13;;;14.10;99.90;;;;;;5033797;28;20443;-51
2022/10/27 08:00:14;;;;;;;15.40;8.57;;;14.40;99.90;;;;;;5034807;28;20044;-44
2022/10/27 08:02:40;;;;;;;15.52;8.27;;;14.40;99.90;;;;;;5035995;28;20033;-49
2022/10/27 08:05:07;;;;;;;15.70;8.35;;;14.60;99.90;;;;;;5033856;28;20153;-45
2022/10/27 08:07:33;;;;;;;15.30;7.88;;;14.40;99.90;;;;;;5033750;28;20096;-44
2022/10/27 08:09:59;;;;;;;13.60;7.90;;;14.60;99.90;;;;;;5034748;28;20045;-48
2022/10/27 08:12:25;;;;;;;16.00;7.72;;;14.40;99.90;;;;;;5035707;28;20055;-45
2022/10/27 08:14:51;;;;;;;14.35;7.65;;;14.40;99.90;;;;;;5033531;28;20565;-44
2022/10/27 08:17:17;;;;;;;15.10;7.88;;;14.40;99.90;;;;;;5035052;28;20100;-47
2022/10/27 08:19:42;;;;;;;12.90;7.32;;;14.40;99.90;;;;;;5040419;28;20476;-45
2022/10/27 08:22:08;;;;;;;13.35;7.80;;;14.50;99.90;;;;;;5036989;28;21241;-44
2022/10/27 08:24:34;;;;;;;15.45;7.95;;;14.40;99.90;;;;;;5039690;28;20043;-46
2022/10/27 08:27:00;;;;;;;12.13;7.32;;;14.50;99.90;;;;;;5039039;28;20040;-44
2022/10/27 08:29:25;;;;;;;14.45;7.75;;;14.70;99.90;;;;;;5035261;28;20029;-44
2022/10/27 08:31:54;;;;;;;13.05;7.75;;;14.50;99.90;;;;;;5036847;28;20512;-44
2022/10/27 08:34:20;;;;;;;12.80;7.28;;;14.80;99.90;;;;;;5035787;28;20032;-45
2022/10/27 08:36:46;;;;;;;14.88;7.97;;;14.80;99.90;;;;;;5037182;28;20097;-43
2022/10/27 08:39:12;;;;;;;14.48;7.40;;;14.90;99.90;;;;;;5038624;28;20079;-46
2022/10/27 08:41:47;;;;;;;12.45;7.07;;;15.20;99.90;;;;;;5052531;28;20656;-46
2022/10/27 08:44:31;;;;;;;11.57;6.88;;;15.20;99.90;;;;;;5035096;28;20116;-46
2022/10/27 08:47:03;;;;;;;14.57;7.95;;;15.40;99.90;;;;;;5036569;28;20496;-46
2022/10/27 08:49:49;;;;;;;13.48;7.10;;;15.40;99.90;;;;;;5036157;28;20052;-45
2022/10/27 08:52:31;;;;;;;11.45;6.30;;;15.30;99.90;;;;;;5036211;28;20081;-44
2022/10/27 08:55:12;;;;;;;12.73;6.63;;;15.60;99.90;;;;;;5036915;28;20073;-44
2022/10/27 08:57:42;;;;;;;15.13;6.60;;;15.60;99.90;;;;;;5032361;28;20423;-43
2022/10/27 09:00:12;;;;;;;14.85;6.70;;;15.80;99.90;;;;;;5038258;28;20064;-46
2022/10/27 09:02:46;;;;;;;13.43;6.28;;;15.90;99.90;;;;;;5035609;28;20508;-44
2022/10/27 09:05:38;;;;;;;10.20;5.82;;;16.00;99.90;;;;;;5037197;28;20116;-43
2022/10/27 09:08:24;;;;;;;15.90;5.53;;;16.20;99.90;;;;;;5034974;28;20048;-44
2022/10/27 09:11:01;;;;;;;13.13;6.03;;;16.30;99.90;;;;;;5036111;28;20404;-44
2022/10/27 09:14:05;;;;;;;13.35;5.57;;;16.20;99.90;;;;;;5035303;28;20060;-44
2022/10/27 09:16:37;;;;;;;14.43;6.00;;;16.20;99.90;;;;;;5034182;28;20029;-45
2022/10/27 09:19:06;;;;;;;13.68;5.25;;;16.30;99.90;;;;;;5037597;28;20503;-47
2022/10/27 09:21:34;;;;;;;9.52;5.30;;;16.30;99.90;;;;;;5032608;28;20033;-45
2022/10/27 09:24:11;;;;;;;11.60;5.55;;;16.40;99.90;;;;;;5032898;28;20171;-44
2022/10/27 09:26:36;;;;;;;13.48;5.22;;;16.40;99.90;;;;;;5032376;28;20814;-44
2022/10/27 09:29:12;;;;;;;10.98;5.40;;;16.60;99.90;;;;;;5034710;28;20083;-46
2022/10/27 09:31:46;;;;;;;12.15;4.90;;;16.60;99.90;;;;;;5034952;28;20041;-45
2022/10/27 09:34:25;;;;;;;11.75;4.78;;;16.70;99.90;;;;;;5036502;28;20025;-45
2022/10/27 09:36:52;;;;;;;12.52;5.07;;;16.70;99.90;;;;;;5035496;28;20092;-45
2022/10/27 09:39:19;;;;;;;12.63;5.22;;;16.80;99.90;;;;;;5032569;28;20123;-43
2022/10/27 09:41:45;;;;;;;10.05;5.03;;;16.80;99.90;;;;;;5035830;28;20053;-45
2022/10/27 09:44:21;;;;;;;9.80;4.13;;;17.00;99.90;;;;;;5033671;28;20048;-43
2022/10/27 09:46:53;;;;;;;11.20;4.07;;;17.00;99.90;;;;;;5033879;28;20546;-45
2022/10/27 09:49:21;;;;;;;9.50;3.83;;;17.10;99.90;;;;;;5034349;28;20041;-47
2022/10/27 09:52:11;;;;;;;7.53;3.50;;;17.20;99.90;;;;;;5036663;28;20056;-45
2022/10/27 09:54:41;;;;;;;9.43;3.30;;;17.30;99.90;;;;;;5034591;28;20037;-47
2022/10/27 09:57:11;;;;;;;8.77;3.90;;;17.50;99.90;;;;;;5032519;28;20030;-45
2022/10/27 09:59:38;;;;;;;6.93;3.20;;;17.60;99.90;;;;;;5029447;28;20095;-45
2022/10/27 10:02:25;;;;;;;9.55;3.30;;;17.70;99.90;;;;;;5035559;28;20029;-45
2022/10/27 10:04:51;;;;;;;7.22;3.38;;;17.80;99.90;;;;;;5034684;28;20468;-45
2022/10/27 10:07:39;;;;;;;8.77;3.35;;;18.00;99.90;;;;;;5033618;28;20037;-46
2022/10/27 10:10:24;;;;;;;7.22;3.03;;;18.10;99.90;;;;;;5033228;28;21411;-46
2022/10/27 10:13:12;;;;;;;8.35;2.95;;;18.10;99.90;;;;;;5032010;28;20036;-47
2022/10/27 10:15:42;;;;;;;8.10;3.00;;;18.10;99.90;;;;;;5032101;28;20034;-48
2022/10/27 10:18:42;;;;;;;8.57;3.20;;;18.10;99.90;;;;;;5034819;28;20032;-48
2022/10/27 10:21:10;;;;;;;6.30;2.72;;;18.00;99.90;;;;;;5026763;28;20538;-47
2022/10/27 10:23:45;;;;;;;7.05;3.00;;;18.00;99.90;;;;;;5029776;28;20044;-46
2022/10/27 10:26:25;;;;;;;7.05;3.20;;;17.90;99.90;;;;;;5033864;28;20025;-46
2022/10/27 10:28:54;;;;;;;9.57;2.97;;;17.90;99.90;;;;;;5032529;28;20809;-44
2022/10/27 10:31:28;;;;;;;6.50;3.10;;;18.00;99.90;;;;;;5033190;28;20548;-48
2022/10/27 10:34:02;;;;;;;7.53;2.80;;;18.20;99.90;;;;;;5027733;28;20072;-45
2022/10/27 10:36:34;;;;;;;9.77;3.20;;;18.20;99.90;;;;;;5032138;28;20500;-48
2022/10/27 10:39:00;;;;;;;7.68;2.63;;;18.30;99.90;;;;;;5046231;28;20045;-47
2022/10/27 10:41:29;;;;;;;8.00;2.50;;;18.40;99.90;;;;;;5037502;28;20392;-45
2022/10/27 10:44:10;;;;;;;9.07;3.00;;;18.40;99.90;;;;;;5036924;28;20037;-48
2022/10/27 10:46:39;;;;;;;8.05;2.38;;;18.40;99.90;;;;;;5032249;28;20124;-47
2022/10/27 10:49:21;;;;;;;7.70;2.47;;;18.40;99.90;;;;;;5029445;28;20049;-47
2022/10/27 10:52:32;;;;;;;8.85;2.30;;;18.40;99.90;;;;;;5030958;28;20077;-49
2022/10/27 10:55:11;;;;;;;7.57;2.72;;;18.40;99.90;;;;;;5030126;28;20120;-45
2022/10/27 10:57:44;;;;;;;9.68;2.08;;;18.50;99.90;;;;;;5038092;28;20033;-45
2022/10/27 11:00:19;;;;;;;7.93;2.55;;;18.50;99.90;;;;;;5033766;28;20071;-45
2022/10/27 11:03:03;;;;;;;8.70;3.03;;;18.50;99.90;;;;;;5032106;28;20033;-46
2022/10/27 11:05:30;;;;;;;;;;;18.40;99.90;;;;;;5033686;28;20480;-48
2022/10/27 11:07:57;;;;;;;6.22;2.30;;;18.40;99.90;;;;;;5029539;28;19917;-48
2022/10/27 11:10:36;;;;;;;7.35;2.30;;;18.40;99.90;;;;;;5034730;28;20523;-44
2022/10/27 11:13:06;;;;;;;6.40;2.40;;;18.30;99.90;;;;;;5030451;28;20033;-49
2022/10/27 11:15:36;;;;;;;8.57;2.28;;;18.30;99.90;;;;;;5027368;28;20069;-47
2022/10/27 11:18:16;;;;;;;7.45;2.28;;;18.30;99.90;;;;;;5036369;28;20036;-45
2022/10/27 11:20:45;;;;;;;7.57;2.10;;;18.30;99.90;;;;;;5032362;28;20052;-45
2022/10/27 11:23:27;;;;;;;8.48;2.30;;;18.30;99.90;;;;;;5032010;28;20124;-47
2022/10/27 11:25:56;;;;;;;12.32;3.08;;;18.30;99.90;;;;;;5030896;28;20045;-49
2022/10/27 11:28:40;;;;;;;5.75;2.10;;;18.40;99.90;;;;;;5032562;28;20502;-45
2022/10/27 11:31:31;;;;;;;8.88;2.63;;;18.30;99.90;;;;;;5030806;28;20493;-45
2022/10/27 11:34:37;;;;;;;6.07;2.00;;;18.40;99.90;;;;;;5020736;28;20063;-48
2022/10/27 11:37:11;;;;;;;10.15;2.35;;;18.40;99.90;;;;;;5030638;28;20048;-47
2022/10/27 11:40:13;;;;;;;7.10;2.20;;;18.50;99.90;;;;;;5032470;28;20076;-45
2022/10/27 11:42:46;;;;;;;5.95;2.00;;;18.60;99.90;;;;;;5031686;28;20053;-47
2022/10/27 11:45:14;;;;;;;8.97;2.27;;;18.70;99.90;;;;;;5038355;28;20071;-44
2022/10/27 11:47:55;;;;;;;7.03;1.88;;;18.70;99.90;;;;;;5035765;28;20040;-48
2022/10/27 11:50:32;;;;;;;5.40;1.67;;;18.70;99.90;;;;;;5034668;28;20044;-47
2022/10/27 11:53:00;;;;;;;4.80;1.85;;;18.70;99.90;;;;;;5031768;28;20125;-46
2022/10/27 11:55:46;;;;;;;6.70;2.03;;;18.70;99.90;;;;;;5034564;28;20052;-45
2022/10/27 11:58:26;;;;;;;6.03;1.70;;;18.80;99.90;;;;;;5035041;28;20045;-44
2022/10/27 12:01:21;;;;;;;5.90;1.90;;;19.10;99.90;;;;;;5034278;28;20041;-46
2022/10/27 12:04:12;;;;;;;4.68;1.60;;;18.90;99.90;;;;;;5036147;28;20051;-47
2022/10/27 12:06:38;;;;;;;5.55;1.60;;;18.80;99.90;;;;;;5034194;28;20033;-46
2022/10/27 12:09:26;;;;;;;5.82;1.55;;;18.90;99.90;;;;;;5036043;28;20037;-46
2022/10/27 12:12:15;;;;;;;8.23;1.77;;;18.90;99.90;;;;;;5034133;28;20731;-46
2022/10/27 12:15:15;;;;;;;5.55;1.80;;;18.80;99.90;;;;;;5031277;28;20037;-47
2022/10/27 12:17:45;;;;;;;7.22;1.92;;;18.80;99.90;;;;;;5033564;28;20500;-46
2022/10/27 12:20:17;;;;;;;5.72;1.80;;;18.90;99.90;;;;;;5036294;28;20399;-46
2022/10/27 12:22:55;;;;;;;4.25;1.67;;;18.90;99.90;;;;;;5036065;28;20099;-47
2022/10/27 12:25:33;;;;;;;6.82;2.22;;;18.90;99.90;;;;;;5035501;28;20029;-45
2022/10/27 12:28:02;;;;;;;5.88;1.95;;;19.00;99.90;;;;;;5034052;28;20041;-48
2022/10/27 12:30:28;;;;;;;10.70;1.88;;;19.10;99.90;;;;;;5036037;28;20041;-45
2022/10/27 12:33:18;;;;;;;5.65;1.73;;;19.10;99.90;;;;;;5035331;28;20055;-45
2022/10/27 12:35:58;;;;;;;9.38;1.60;;;19.20;99.90;;;;;;5034153;28;20480;-45
2022/10/27 12:38:40;;;;;;;8.30;2.17;;;19.30;99.90;;;;;;5036120;28;20068;-47
2022/10/27 12:41:19;;;;;;;4.03;1.40;;;19.50;99.90;;;;;;5033416;28;20033;-44
2022/10/27 12:43:47;;;;;;;6.30;1.60;;;19.70;99.90;;;;;;5033246;28;20535;-48
2022/10/27 12:46:19;;;;;;;6.07;2.00;;;19.90;99.90;;;;;;5033435;28;20392;-46
2022/10/27 12:49:22;;;;;;;5.18;1.77;;;20.20;99.90;;;;;;5032849;28;20543;-45
2022/10/27 12:52:16;;;;;;;4.65;1.40;;;20.60;99.90;;;;;;5031986;28;20053;-43
2022/10/27 12:55:01;;;;;;;;;;;20.90;99.90;;;;;;5048083;28;20103;-46
2022/10/27 12:58:00;;;;;;;6.28;1.73;;;21.10;99.90;;;;;;5032201;28;19927;-46